Time;durP1;ratioP1;P1;durP2;ratioP2;P2;SDS_P1;SDS_P2;PMS_P1;PMS_P2;Temp;Humidity;BMP_temperature;BMP_pressure;BME280_temperature;BME280_humidity;BME280_pressure;Samples;Min_cycle;Max_cycle;Signal;HPM_P1;HPM_P2
2023/03/05 00:01:21;;;;;;;;;;;20.20;77.30;;;;;;5070758;28;19944;-50
2023/03/05 00:03:47;;;;;;;;;;;20.20;77.40;;;;;;5055401;28;19912;-51
2023/03/05 00:06:13;;;;;;;;;;;20.20;77.50;;;;;;5055109;28;19913;-50
2023/03/05 00:08:38;;;;;;;;;;;20.20;77.60;;;;;;5054115;28;19908;-51
2023/03/05 00:11:05;;;;;;;;;;;20.40;77.10;;;;;;5054213;28;19916;-52
2023/03/05 00:13:31;;;;;;;;;;;20.60;76.50;;;;;;5054043;28;20275;-53
2023/03/05 00:15:56;;;;;;;;;;;20.80;75.90;;;;;;5055042;28;19916;-51
2023/03/05 00:18:22;;;;;;;;;;;20.80;75.90;;;;;;5055213;28;19916;-49
2023/03/05 00:20:48;;;;;;;;;;;20.80;76.00;;;;;;5055183;28;19974;-49
2023/03/05 00:23:13;;;;;;;;;;;20.70;75.90;;;;;;5053989;28;19962;-53
2023/03/05 00:25:39;;;;;;;;;;;20.60;76.70;;;;;;5055070;28;19916;-50
2023/03/05 00:28:05;;;;;;;;;;;20.50;77.10;;;;;;5055061;28;20348;-53
2023/03/05 00:30:31;;;;;;;;;;;20.40;77.30;;;;;;5055080;28;19913;-49
2023/03/05 00:32:57;;;;;;;;;;;20.40;77.40;;;;;;5054981;28;20344;-50
2023/03/05 00:35:22;;;;;;;;;;;20.40;77.20;;;;;;5053637;28;19909;-51
2023/03/05 00:37:48;;;;;;;;;;;20.40;76.80;;;;;;5054599;28;19948;-53
2023/03/05 00:40:13;;;;;;;;;;;20.50;77.10;;;;;;5067354;28;19993;-52
2023/03/05 00:42:39;;;;;;;;;;;20.60;77.00;;;;;;5056873;28;20427;-50
2023/03/05 00:45:05;;;;;;;;;;;20.60;76.80;;;;;;5074429;28;20003;-48
2023/03/05 00:47:31;;;;;;;;;;;20.80;76.30;;;;;;5074627;28;19927;-49
2023/03/05 00:49:56;;;;;;;;;;;21.00;76.10;;;;;;5074630;28;19908;-49
2023/03/05 00:52:22;;;;;;;;;;;21.10;75.70;;;;;;5074595;28;20270;-50
2023/03/05 00:54:47;;;;;;;;;;;21.10;75.60;;;;;;5074924;28;19931;-50
2023/03/05 00:57:12;;;;;;;;;;;21.00;75.60;;;;;;5074533;28;19908;-51
2023/03/05 00:59:38;;;;;;;;;;;20.90;75.90;;;;;;5074468;28;19934;-51
2023/03/05 01:02:03;;;;;;;;;;;20.80;76.20;;;;;;5085305;28;20275;-52
2023/03/05 01:04:29;;;;;;;;;;;20.60;77.20;;;;;;5094184;28;20367;-54
2023/03/05 01:06:54;;;;;;;;;;;20.50;77.00;;;;;;5094379;28;19912;-51
2023/03/05 01:09:20;;;;;;;;;;;20.30;77.20;;;;;;5076427;28;19912;-51
2023/03/05 01:11:46;;;;;;;;;;;20.20;77.30;;;;;;5094909;28;19914;-53
2023/03/05 01:14:12;;;;;;;;;;;20.20;77.40;;;;;;5094250;28;19987;-51
2023/03/05 01:16:37;;;;;;;;;;;20.10;77.60;;;;;;5094201;28;19960;-49
2023/03/05 01:19:03;;;;;;;;;;;20.10;77.50;;;;;;5094501;28;19908;-49
2023/03/05 01:21:29;;;;;;;;;;;20.30;77.30;;;;;;5094819;28;19908;-51
2023/03/05 01:23:54;;;;;;;;;;;20.40;76.90;;;;;;5094320;28;20006;-50
2023/03/05 01:26:20;;;;;;;;;;;20.60;76.40;;;;;;5094625;28;19923;-50
2023/03/05 01:28:45;;;;;;;;;;;20.80;76.20;;;;;;5094301;28;20273;-51
2023/03/05 01:31:11;;;;;;;;;;;21.00;75.90;;;;;;5094329;28;19908;-48
2023/03/05 01:33:37;;;;;;;;;;;21.00;76.30;;;;;;5094642;28;19996;-49
2023/03/05 01:36:06;;;;;;;;;;;21.00;75.70;;;;;;5094590;28;19916;-50
2023/03/05 01:38:31;;;;;;;;;;;21.00;75.60;;;;;;5093953;28;20397;-49
2023/03/05 01:40:57;;;;;;;;;;;20.90;75.70;;;;;;5094422;28;19959;-52
2023/03/05 01:43:24;;;;;;;;;;;20.80;75.70;;;;;;5094488;28;19908;-51
2023/03/05 01:46:08;;;;;;;;;;;20.70;76.60;;;;;;5094178;28;19917;-51
2023/03/05 01:48:33;;;;;;;;;;;20.60;76.50;;;;;;5076006;28;19915;-51
2023/03/05 01:50:59;;;;;;;;;;;20.60;77.10;;;;;;5093865;28;19908;-52
2023/03/05 01:53:24;;;;;;;;;;;20.60;76.90;;;;;;5093867;28;20008;-52
2023/03/05 01:55:50;;;;;;;;;;;20.60;76.70;;;;;;5094679;28;19913;-50
2023/03/05 01:58:16;;;;;;;;;;;20.80;76.60;;;;;;5098123;28;19908;-50
2023/03/05 02:00:44;;;;;;;;;;;20.80;76.40;;;;;;5097887;28;19909;-51
2023/03/05 02:03:11;;;;;;;;;;;20.90;76.20;;;;;;5077852;28;20003;-47
2023/03/05 02:05:37;;;;;;;;;;;21.00;76.00;;;;;;5077586;28;19935;-53
2023/03/05 02:08:05;;;;;;;;;;;21.00;75.60;;;;;;5077738;28;19913;-48
2023/03/05 02:10:32;;;;;;;;;;;21.10;75.60;;;;;;5059692;28;20009;-52
2023/03/05 02:13:00;;;;;;;;;;;20.90;76.10;;;;;;5077355;28;19908;-52
2023/03/05 02:15:25;;;;;;;;;;;20.90;75.90;;;;;;5077445;28;19954;-54
2023/03/05 02:17:51;;;;;;;;;;;20.70;76.30;;;;;;5077266;28;19913;-47
2023/03/05 02:20:18;;;;;;;;;;;20.70;76.70;;;;;;5077258;28;20379;-50
2023/03/05 02:22:43;;;;;;;;;;;20.50;76.80;;;;;;5059570;28;19909;-50
2023/03/05 02:25:16;;;;;;;;;;;20.50;77.10;;;;;;5077016;28;20260;-52
2023/03/05 02:27:45;;;;;;;;;;;20.40;77.10;;;;;;5059236;28;19913;-52
2023/03/05 02:30:11;;;;;;;;;;;20.40;77.30;;;;;;5077511;28;19909;-50
2023/03/05 02:32:36;;;;;;;;;;;20.50;77.10;;;;;;5077288;28;19912;-50
2023/03/05 02:35:02;;;;;;;;;;;20.60;76.70;;;;;;5077214;28;19915;-50
2023/03/05 02:37:27;;;;;;;;;;;20.70;76.60;;;;;;5076884;28;20003;-50
2023/03/05 02:39:53;;;;;;;;;;;20.90;76.60;;;;;;5059133;28;19920;-50
2023/03/05 02:42:18;;;;;;;;;;;20.90;75.90;;;;;;5077073;28;19955;-48
2023/03/05 02:44:44;;;;;;;;;;;21.00;75.80;;;;;;5076643;28;19916;-52
2023/03/05 02:47:09;;;;;;;;;;;21.00;75.70;;;;;;5076761;28;19960;-49
2023/03/05 02:49:35;;;;;;;;;;;21.00;75.80;;;;;;5076738;28;19930;-49
2023/03/05 02:52:00;;;;;;;;;;;20.90;75.90;;;;;;5058994;28;20274;-53
2023/03/05 02:54:26;;;;;;;;;;;20.80;76.10;;;;;;5058907;28;19908;-49
2023/03/05 02:56:51;;;;;;;;;;;20.70;76.20;;;;;;5076889;28;19916;-53
2023/03/05 02:59:17;;;;;;;;;;;20.60;76.10;;;;;;5076558;28;19908;-51
2023/03/05 03:01:42;;;;;;;;;;;20.50;77.00;;;;;;5084216;28;20377;-50
2023/03/05 03:04:07;;;;;;;;;;;20.40;76.80;;;;;;5096835;28;20011;-49
2023/03/05 03:06:33;;;;;;;;;;;20.40;76.70;;;;;;5078415;28;19919;-50
2023/03/05 03:08:58;;;;;;;;;;;20.50;76.50;;;;;;5096517;28;20381;-53
2023/03/05 03:11:24;;;;;;;;;;;20.70;76.40;;;;;;5096460;28;19915;-50
2023/03/05 03:13:49;;;;;;;;;;;20.90;76.30;;;;;;5096484;28;19914;-49
2023/03/05 03:16:15;;;;;;;;;;;21.00;75.80;;;;;;5096468;28;20310;-51
2023/03/05 03:18:41;;;;;;;;;;;21.10;75.60;;;;;;5096734;28;19912;-53
2023/03/05 03:21:06;;;;;;;;;;;21.10;75.10;;;;;;5097012;28;19951;-51
2023/03/05 03:23:32;;;;;;;;;;;21.10;75.80;;;;;;5078320;28;19908;-49
2023/03/05 03:25:58;;;;;;;;;;;21.00;75.50;;;;;;5096252;28;19919;-49
2023/03/05 03:28:23;;;;;;;;;;;20.90;75.90;;;;;;5096163;28;19977;-49
2023/03/05 03:30:49;;;;;;;;;;;20.70;76.10;;;;;;5096738;28;19909;-53
2023/03/05 03:33:16;;;;;;;;;;;20.60;76.40;;;;;;5096395;28;19916;-53
2023/03/05 03:35:43;;;;;;;;;;;20.50;76.70;;;;;;5096290;28;19954;-50
2023/03/05 03:38:08;;;;;;;;;;;20.40;77.50;;;;;;5096043;28;19914;-52
2023/03/05 03:40:34;;;;;;;;;;;20.30;77.40;;;;;;5095805;28;20396;-53
2023/03/05 03:43:00;;;;;;;;;;;20.20;77.50;;;;;;5095916;28;19953;-50
2023/03/05 03:45:25;;;;;;;;;;;20.30;78.00;;;;;;5095741;28;19937;-49
2023/03/05 03:47:51;;;;;;;;;;;20.40;77.40;;;;;;5096112;28;19916;-50
2023/03/05 03:50:17;;;;;;;;;;;20.50;77.00;;;;;;5096118;28;20281;-54
2023/03/05 03:52:42;;;;;;;;;;;20.70;76.60;;;;;;5095993;28;19912;-51
2023/03/05 03:55:08;;;;;;;;;;;20.90;76.40;;;;;;5095975;28;19908;-53
2023/03/05 03:57:33;;;;;;;;;;;21.00;76.40;;;;;;5096216;28;19999;-53
2023/03/05 03:59:59;;;;;;;;;;;21.00;76.10;;;;;;5095894;28;19912;-49
2023/03/05 04:02:25;;;;;;;;;;;21.10;75.80;;;;;;5081958;28;19954;-51
2023/03/05 04:04:50;;;;;;;;;;;21.00;75.90;;;;;;5075133;28;19916;-51
2023/03/05 04:07:16;;;;;;;;;;;20.90;75.60;;;;;;5075483;28;19913;-49
2023/03/05 04:09:41;;;;;;;;;;;20.80;75.90;;;;;;5057490;28;19936;-53
2023/03/05 04:12:07;;;;;;;;;;;20.70;76.30;;;;;;5075066;28;19908;-50
2023/03/05 04:14:33;;;;;;;;;;;20.60;76.50;;;;;;5075008;28;19960;-51
2023/03/05 04:16:58;;;;;;;;;;;20.50;76.40;;;;;;5075327;28;19961;-54
2023/03/05 04:19:24;;;;;;;;;;;20.50;77.10;;;;;;5074557;28;20263;-48
2023/03/05 04:21:49;;;;;;;;;;;20.60;76.90;;;;;;5074934;28;19908;-52
2023/03/05 04:24:15;;;;;;;;;;;20.70;76.60;;;;;;5074814;28;19946;-54
2023/03/05 04:26:40;;;;;;;;;;;20.80;76.30;;;;;;5074812;28;19920;-51
2023/03/05 04:29:06;;;;;;;;;;;20.90;76.30;;;;;;5075063;28;20008;-50
2023/03/05 04:31:31;;;;;;;;;;;21.10;76.30;;;;;;5074732;28;19916;-49
2023/03/05 04:33:58;;;;;;;;;;;21.10;75.90;;;;;;5074676;28;20325;-49
2023/03/05 04:36:23;;;;;;;;;;;21.00;76.20;;;;;;5074911;28;19962;-50
2023/03/05 04:38:49;;;;;;;;;;;21.00;76.10;;;;;;5074988;28;19912;-52
2023/03/05 04:41:14;;;;;;;;;;;20.90;76.50;;;;;;5075199;28;19908;-48
2023/03/05 04:43:39;;;;;;;;;;;20.80;76.40;;;;;;5056784;28;19908;-47
2023/03/05 04:46:05;;;;;;;;;;;20.60;76.50;;;;;;5075062;28;19912;-49
2023/03/05 04:48:31;;;;;;;;;;;20.60;76.90;;;;;;5074621;28;19955;-52
2023/03/05 04:50:56;;;;;;;;;;;20.40;77.40;;;;;;5074300;28;19908;-52
2023/03/05 04:53:22;;;;;;;;;;;20.30;77.40;;;;;;5074221;28;19909;-49
2023/03/05 04:55:52;;;;;;;;;;;20.30;78.00;;;;;;5074578;28;19948;-48
2023/03/05 04:58:17;;;;;;;;;;;20.30;77.60;;;;;;5074567;28;19995;-53
2023/03/05 05:00:43;;;;;;;;;;;20.30;77.90;;;;;;5074573;28;19958;-52
2023/03/05 05:03:08;;;;;;;;;;;20.50;77.40;;;;;;5093963;28;20362;-51
2023/03/05 05:05:33;;;;;;;;;;;20.70;77.20;;;;;;5094596;28;19962;-51
2023/03/05 05:07:59;;;;;;;;;;;20.80;76.70;;;;;;5094653;28;19926;-49
2023/03/05 05:10:25;;;;;;;;;;;21.00;76.20;;;;;;5094236;28;20412;-49
2023/03/05 05:12:50;;;;;;;;;;;21.10;75.80;;;;;;5094518;28;19912;-48
2023/03/05 05:15:16;;;;;;;;;;;21.10;75.60;;;;;;5094255;28;19958;-52
2023/03/05 05:17:41;;;;;;;;;;;21.10;75.70;;;;;;5094216;28;19908;-52
2023/03/05 05:20:09;;;;;;;;;;;21.00;76.30;;;;;;5094542;28;19915;-51
2023/03/05 05:22:35;;;;;;;;;;;20.90;76.50;;;;;;5094235;28;19908;-52
2023/03/05 05:25:00;;;;;;;;;;;20.70;76.30;;;;;;5094480;28;19916;-52
2023/03/05 05:27:26;;;;;;;;;;;20.60;76.80;;;;;;5076256;28;19916;-49
2023/03/05 05:29:52;;;;;;;;;;;20.50;77.10;;;;;;5094335;28;20024;-50
2023/03/05 05:32:18;;;;;;;;;;;20.40;77.20;;;;;;5094331;28;19916;-52
2023/03/05 05:34:43;;;;;;;;;;;20.30;77.30;;;;;;5094293;28;19915;-53
2023/03/05 05:37:09;;;;;;;;;;;20.40;78.20;;;;;;5094362;28;19912;-50
2023/03/05 05:39:34;;;;;;;;;;;20.60;77.10;;;;;;5093878;28;19967;-50
2023/03/05 05:42:00;;;;;;;;;;;20.80;76.70;;;;;;5093993;28;20285;-49
2023/03/05 05:44:26;;;;;;;;;;;20.90;76.40;;;;;;5093950;28;19916;-50
2023/03/05 05:46:51;;;;;;;;;;;21.00;76.00;;;;;;5076172;28;19962;-48
2023/03/05 05:49:17;;;;;;;;;;;21.10;75.80;;;;;;5093914;28;19916;-52
2023/03/05 05:51:42;;;;;;;;;;;21.10;75.90;;;;;;5094553;28;19908;-51
2023/03/05 05:54:09;;;;;;;;;;;21.00;75.90;;;;;;5094259;28;20317;-51
2023/03/05 05:56:36;;;;;;;;;;;21.00;76.40;;;;;;5094236;28;19963;-50
2023/03/05 05:59:01;;;;;;;;;;;20.80;76.00;;;;;;5066224;28;19923;-49
2023/03/05 06:01:28;;;;;;;;;;;20.70;76.40;;;;;;5079462;28;19908;-52
2023/03/05 06:03:54;;;;;;;;;;;20.60;76.70;;;;;;5093905;28;19931;-48
2023/03/05 06:06:20;;;;;;;;;;;20.50;76.80;;;;;;5058164;28;20371;-48
2023/03/05 06:08:47;;;;;;;;;;;20.40;77.20;;;;;;5055595;28;20266;-47
2023/03/05 06:11:12;;;;;;;;;;;20.40;77.30;;;;;;5073838;28;19970;-50
2023/03/05 06:13:38;;;;;;;;;;;20.50;77.00;;;;;;5074128;28;20364;-48
2023/03/05 06:16:05;;;;;;;;;;;20.70;76.90;;;;;;5085088;28;19962;-48
2023/03/05 06:18:31;;;;;;;;;;;20.80;76.60;;;;;;5068813;28;19916;-48
2023/03/05 06:20:58;;;;;;;;;;;21.00;76.40;;;;;;5046726;28;19963;-48
2023/03/05 06:23:24;;;;;;;;;;;21.00;76.40;;;;;;5073566;28;20330;-48
2023/03/05 06:25:49;;;;;;;;;;;21.10;76.10;;;;;;5073342;28;19916;-51
2023/03/05 06:28:15;;;;;;;;;;;21.10;76.10;;;;;;5073098;28;19913;-49
2023/03/05 06:30:40;;;;;;;;;;;21.10;76.20;;;;;;5055464;28;20363;-50
2023/03/05 06:33:06;;;;;;;;;;;21.00;76.20;;;;;;5073409;28;20347;-50
2023/03/05 06:35:32;;;;;;;;;;;20.90;76.30;;;;;;5073159;28;19908;-51
2023/03/05 06:37:57;;;;;;;;;;;20.80;76.80;;;;;;5073039;28;19908;-51
2023/03/05 06:40:23;;;;;;;;;;;20.60;76.70;;;;;;5073795;28;19968;-50
2023/03/05 06:42:48;;;;;;;;;;;20.50;77.10;;;;;;5075722;28;20017;-53
2023/03/05 06:45:14;;;;;;;;;;;20.40;77.20;;;;;;5065629;28;19908;-51
2023/03/05 06:47:39;;;;;;;;;;;20.30;77.20;;;;;;5069743;28;19923;-50
2023/03/05 06:50:05;;;;;;;;;;;20.40;77.50;;;;;;5073322;28;19991;-52
2023/03/05 06:52:30;;;;;;;;;;;20.50;77.40;;;;;;5070872;28;20298;-50
2023/03/05 06:54:56;;;;;;;;;;;20.60;77.20;;;;;;5076740;28;19984;-54
2023/03/05 06:57:22;;;;;;;;;;;20.80;77.00;;;;;;5058524;28;19948;-53
2023/03/05 06:59:47;;;;;;;;;;;21.00;76.30;;;;;;5083764;28;19912;-53
2023/03/05 07:02:13;;;;;;;;;;;21.10;76.20;;;;;;5080859;28;19966;-50
2023/03/05 07:04:39;;;;;;;;;;;21.10;76.10;;;;;;5074754;28;19964;-50
2023/03/05 07:07:05;;;;;;;;;;;21.20;76.10;;;;;;5073895;28;19939;-49
2023/03/05 07:09:30;;;;;;;;;;;21.20;75.40;;;;;;5074377;28;19930;-50
2023/03/05 07:11:56;;;;;;;;;;;21.00;76.20;;;;;;5073454;28;19935;-51
2023/03/05 07:14:21;;;;;;;;;;;20.90;76.30;;;;;;5076283;28;19970;-50
2023/03/05 07:16:47;;;;;;;;;;;20.70;77.10;;;;;;5076657;28;20386;-51
2023/03/05 07:19:12;;;;;;;;;;;20.60;77.30;;;;;;5076719;28;19908;-49
2023/03/05 07:21:38;;;;;;;;;;;20.40;77.30;;;;;;5076347;28;20010;-53
2023/03/05 07:24:04;;;;;;;;;;;20.30;77.40;;;;;;5075868;28;19927;-49
2023/03/05 07:26:32;;;;;;;;;;;20.20;77.50;;;;;;5075966;28;19965;-50
2023/03/05 07:28:58;;;;;;;;;;;20.20;77.60;;;;;;5076163;28;20279;-50
2023/03/05 07:31:29;;;;;;;;;;;20.20;77.70;;;;;;5076301;28;19908;-48
2023/03/05 07:33:55;;;;;;;;;;;20.10;78.10;;;;;;5075723;28;19908;-50
2023/03/05 07:36:21;;;;;;;;;;;20.10;77.70;;;;;;5076030;28;19912;-50
2023/03/05 07:38:46;;;;;;;;;;;20.20;77.50;;;;;;5075528;28;19909;-53
2023/03/05 07:41:13;;;;;;;;;;;20.30;77.70;;;;;;5057962;28;19969;-51
2023/03/05 07:43:39;;;;;;;;;;;20.50;77.40;;;;;;5075754;28;19908;-54
2023/03/05 07:46:10;;;;;;;;;;;20.50;77.10;;;;;;5075762;28;19913;-51
2023/03/05 07:48:35;;;;;;;;;;;20.50;77.10;;;;;;5075756;28;19944;-50
2023/03/05 07:51:06;;;;;;;;;;;20.50;76.80;;;;;;5076051;28;19920;-50
2023/03/05 07:53:31;;;;;;;;;;;20.60;77.00;;;;;;5074546;28;19908;-48
2023/03/05 07:55:57;;;;;;;;;;;20.60;76.50;;;;;;5075281;28;19916;-52
2023/03/05 07:58:23;;;;;;;;;;;20.70;76.50;;;;;;5075242;28;19915;-51
2023/03/05 08:00:48;;;;;;;;;;;20.70;76.30;;;;;;5075845;28;19912;-53
2023/03/05 08:03:14;;;;;;;;;;;20.80;76.10;;;;;;5095752;28;19958;-52
2023/03/05 08:05:40;;;;;;;;;;;20.80;76.00;;;;;;5095566;28;20347;-51
2023/03/05 08:08:06;;;;;;;;;;;20.80;75.80;;;;;;5095536;28;20415;-51
2023/03/05 08:10:32;;;;;;;;;;;20.80;76.10;;;;;;5095207;28;19912;-50
2023/03/05 08:12:57;;;;;;;;;;;20.70;76.30;;;;;;5095465;28;20308;-53
2023/03/05 08:15:23;;;;;;;;;;;20.60;76.30;;;;;;5062622;28;19920;-51
2023/03/05 08:17:48;;;;;;;;;;;20.50;75.20;;;;;;5074051;28;20351;-50
2023/03/05 08:20:14;;;;;;;;;;;20.50;76.10;;;;;;5072339;28;19908;-55
2023/03/05 08:22:39;;;;;;;;;;;20.40;76.60;;;;;;5045383;28;19908;-53
2023/03/05 08:25:05;;;;;;;;;;;20.40;76.20;;;;;;5075091;28;19916;-53
2023/03/05 08:27:31;;;;;;;;;;;20.40;76.70;;;;;;5056570;28;20389;-51
2023/03/05 08:29:57;;;;;;;;;;;20.40;77.20;;;;;;5072005;28;20011;-52
2023/03/05 08:32:22;;;;;;;;;;;20.50;76.70;;;;;;5056881;28;19969;-54
2023/03/05 08:34:47;;;;;;;;;;;20.50;76.60;;;;;;5074750;28;20003;-53
2023/03/05 08:37:13;;;;;;;;;;;20.60;76.70;;;;;;5074735;28;20321;-50
2023/03/05 08:39:38;;;;;;;;;;;20.60;76.30;;;;;;5056509;28;19920;-52
2023/03/05 08:42:04;;;;;;;;;;;20.60;76.60;;;;;;5074397;28;20287;-49
2023/03/05 08:44:30;;;;;;;;;;;20.60;76.30;;;;;;5056482;28;20050;-53
2023/03/05 08:46:55;;;;;;;;;;;20.50;76.50;;;;;;5056549;28;19916;-53
2023/03/05 08:49:21;;;;;;;;;;;20.40;76.90;;;;;;5072195;28;20271;-53
2023/03/05 08:51:47;;;;;;;;;;;20.40;77.00;;;;;;5045185;28;19927;-51
2023/03/05 08:54:12;;;;;;;;;;;20.30;76.90;;;;;;5074135;28;19944;-52
2023/03/05 08:56:38;;;;;;;;;;;20.20;77.70;;;;;;5074348;28;19909;-51
2023/03/05 08:59:04;;;;;;;;;;;20.20;77.30;;;;;;5074080;28;19909;-51
2023/03/05 09:01:30;;;;;;;;;;;20.30;77.40;;;;;;5079865;28;19908;-53
2023/03/05 09:03:59;;;;;;;;;;;20.40;77.00;;;;;;5094479;28;19915;-52
2023/03/05 09:06:25;;;;;;;;;;;20.60;77.10;;;;;;5076033;28;19919;-53
2023/03/05 09:08:50;;;;;;;;;;;20.70;76.40;;;;;;5079726;28;20291;-54
2023/03/05 09:11:16;;;;;;;;;;;20.90;76.30;;;;;;5069410;28;19975;-52
2023/03/05 09:13:42;;;;;;;;;;;20.90;74.90;;;;;;5071964;28;19915;-52
2023/03/05 09:16:10;;;;;;;;;;;20.90;75.90;;;;;;5053946;28;19920;-54
2023/03/05 09:18:35;;;;;;;;;;;20.90;75.80;;;;;;5054613;28;19913;-54
2023/03/05 09:21:08;;;;;;;;;;;20.70;76.00;;;;;;5054075;28;19920;-51
2023/03/05 09:23:33;;;;;;;;;;;20.60;76.20;;;;;;5068867;28;19955;-55
2023/03/05 09:25:59;;;;;;;;;;;20.40;76.30;;;;;;5071990;28;19963;-53
2023/03/05 09:28:24;;;;;;;;;;;20.30;76.50;;;;;;5072083;28;19923;-50
2023/03/05 09:30:50;;;;;;;;;;;20.20;76.70;;;;;;5055947;28;19955;-49
2023/03/05 09:33:15;;;;;;;;;;;20.10;77.00;;;;;;5073618;28;20003;-52
2023/03/05 09:35:41;;;;;;;;;;;20.10;74.90;;;;;;5055007;28;19959;-54
2023/03/05 09:38:07;;;;;;;;;;;20.10;77.40;;;;;;5051098;28;20063;-50
2023/03/05 09:40:48;;;;;;;;;;;20.20;78.20;;;;;;5073681;28;19921;-53
2023/03/05 09:43:31;;;;;;;;;;;20.40;76.80;;;;;;5076474;28;19913;-51
2023/03/05 09:46:12;;;;;;;;;;;20.70;76.80;;;;;;5057087;28;20355;-53
2023/03/05 09:48:51;;;;;;;;;;;20.90;74.10;;;;;;5036775;28;19939;-53
2023/03/05 09:51:20;;;;;;;;;;;21.00;74.80;;;;;;5053853;28;20275;-52
2023/03/05 09:53:48;;;;;;;;;;;21.00;75.20;;;;;;5054039;28;19962;-51
2023/03/05 09:56:22;;;;;;;;;;;20.90;75.70;;;;;;5053579;28;20338;-52
2023/03/05 09:58:57;;;;;;;;;;;20.80;75.80;;;;;;5053793;28;20344;-50
2023/03/05 10:01:34;;;;;;;;;;;20.70;76.10;;;;;;5062687;28;19909;-55
2023/03/05 10:04:00;;;;;;;;;;;20.50;76.60;;;;;;5094167;28;19953;-55
2023/03/05 10:06:25;;;;;;;;;;;20.40;76.80;;;;;;5094237;28;20262;-55
2023/03/05 10:08:53;;;;;;;;;;;20.30;77.20;;;;;;5094187;28;20371;-54
2023/03/05 10:11:38;;;;;;;;;;;20.20;77.50;;;;;;5075834;28;19908;-55
2023/03/05 10:14:05;;;;;;;;;;;20.10;77.60;;;;;;5034805;28;19909;-52
2023/03/05 10:16:50;;;;;;;;;;;20.10;77.60;;;;;;5075546;28;19958;-54
2023/03/05 10:19:18;;;;;;;;;;;20.20;77.70;;;;;;5097661;28;19954;-51
2023/03/05 10:21:58;;;;;;;;;;;20.30;77.50;;;;;;5097271;28;19909;-52
2023/03/05 10:24:38;;;;;;;;;;;20.60;76.90;;;;;;5079213;28;19912;-52
2023/03/05 10:27:06;;;;;;;;;;;20.80;76.30;;;;;;5097185;28;20399;-49
2023/03/05 10:29:40;;;;;;;;;;;21.00;75.90;;;;;;5097262;28;19908;-51
2023/03/05 10:32:28;;;;;;;;;;;21.10;75.60;;;;;;5079131;28;19915;-52
2023/03/05 10:34:56;;;;;;;;;;;21.00;75.50;;;;;;5079007;28;19908;-54
2023/03/05 10:37:37;;;;;;;;;;;21.00;75.80;;;;;;5096951;28;19917;-49
2023/03/05 10:40:08;;;;;;;;;;;20.80;76.10;;;;;;5097071;28;19927;-50
2023/03/05 10:42:43;;;;;;;;;;;20.60;76.30;;;;;;5078714;28;20278;-53
2023/03/05 10:45:29;;;;;;;;;;;20.50;76.80;;;;;;5078740;28;19912;-55
2023/03/05 10:47:58;;;;;;;;;;;20.30;77.10;;;;;;5097157;28;19919;-54
2023/03/05 10:50:25;;;;;;;;;;;20.20;77.10;;;;;;5097023;28;19974;-54
2023/03/05 10:53:05;;;;;;;;;;;20.10;77.50;;;;;;5096987;28;20363;-53
2023/03/05 10:55:30;;;;;;;;;;;20.00;78.00;;;;;;5096781;28;19907;-53
2023/03/05 10:57:56;;;;;;;;;;;20.00;78.10;;;;;;5096847;28;20409;-51
2023/03/05 11:00:23;;;;;;;;;;;20.00;78.00;;;;;;5096846;28;19909;-50
2023/03/05 11:02:59;;;;;;;;;;;20.10;78.10;;;;;;5079578;28;19912;-52
2023/03/05 11:05:43;;;;;;;;;;;20.30;77.80;;;;;;5076133;28;20370;-51
2023/03/05 11:08:28;;;;;;;;;;;20.50;77.40;;;;;;5076442;28;19912;-52
2023/03/05 11:11:02;;;;;;;;;;;20.70;76.60;;;;;;5058637;28;20011;-50
2023/03/05 11:13:28;;;;;;;;;;;20.90;76.40;;;;;;5076066;28;20286;-51
2023/03/05 11:16:01;;;;;;;;;;;21.00;76.10;;;;;;5076018;28;20002;-50
2023/03/05 11:18:30;;;;;;;;;;;21.00;75.70;;;;;;5076270;28;19909;-54
2023/03/05 11:21:06;;;;;;;;;;;21.00;76.00;;;;;;5058093;28;20335;-53
2023/03/05 11:23:31;;;;;;;;;;;20.90;75.90;;;;;;5076202;28;19948;-49
2023/03/05 11:26:11;;;;;;;;;;;20.80;76.10;;;;;;5076101;28;19954;-54
2023/03/05 11:28:38;;;;;;;;;;;20.70;76.50;;;;;;5075827;28;19920;-52
2023/03/05 11:31:06;;;;;;;;;;;20.60;76.60;;;;;;5076016;28;19908;-52
2023/03/05 11:33:33;;;;;;;;;;;20.50;76.60;;;;;;5075687;28;19931;-53
2023/03/05 11:36:10;;;;;;;;;;;20.40;76.90;;;;;;5075472;28;20371;-53
2023/03/05 11:38:49;;;;;;;;;;;20.40;77.10;;;;;;5075602;28;19960;-53
2023/03/05 11:41:15;;;;;;;;;;;20.40;77.30;;;;;;5075829;28;19921;-54
2023/03/05 11:43:42;;;;;;;;;;;20.50;77.00;;;;;;5057875;28;20499;-51
2023/03/05 11:46:09;;;;;;;;;;;20.60;76.80;;;;;;5075284;28;19962;-52
2023/03/05 11:48:35;;;;;;;;;;;20.70;76.60;;;;;;5075312;28;19912;-53
2023/03/05 11:51:05;;;;;;;;;;;20.80;76.30;;;;;;5075270;28;19919;-51
2023/03/05 11:53:34;;;;;;;;;;;20.90;75.70;;;;;;5075386;28;20284;-53
2023/03/05 11:56:03;;;;;;;;;;;21.00;75.60;;;;;;5075417;28;19908;-49
2023/03/05 11:58:38;;;;;;;;;;;21.00;75.60;;;;;;5075356;28;20368;-51
2023/03/05 12:01:07;;;;;;;;;;;20.90;75.80;;;;;;5077333;28;19958;-52
2023/03/05 12:03:34;;;;;;;;;;;20.90;76.40;;;;;;5095805;28;19908;-50
2023/03/05 12:06:05;;;;;;;;;;;20.70;76.10;;;;;;5095448;28;20398;-53
2023/03/05 12:08:36;;;;;;;;;;;20.60;76.60;;;;;;5095245;28;19912;-54
2023/03/05 12:11:24;;;;;;;;;;;20.50;76.70;;;;;;5095456;28;20347;-54
2023/03/05 12:13:55;;;;;;;;;;;20.40;77.20;;;;;;5095132;28;19950;-52
2023/03/05 12:16:33;;;;;;;;;;;20.30;77.10;;;;;;5095085;28;19908;-54
2023/03/05 12:19:06;;;;;;;;;;;20.30;77.50;;;;;;5095372;28;19914;-50
2023/03/05 12:21:36;;;;;;;;;;;20.40;77.10;;;;;;5095042;28;19908;-53
2023/03/05 12:24:20;;;;;;;;;;;20.50;77.20;;;;;;5095067;28;19908;-52
2023/03/05 12:26:52;;;;;;;;;;;20.60;76.80;;;;;;5094990;28;19940;-53
2023/03/05 12:29:36;;;;;;;;;;;20.80;76.20;;;;;;5094906;28;20003;-54
2023/03/05 12:32:02;;;;;;;;;;;20.90;76.00;;;;;;5095345;28;19912;-53
2023/03/05 12:34:40;;;;;;;;;;;21.00;76.10;;;;;;5094984;28;19915;-53
2023/03/05 12:37:10;;;;;;;;;;;21.00;76.00;;;;;;5076697;28;19914;-51
2023/03/05 12:39:46;;;;;;;;;;;20.90;76.10;;;;;;5075875;28;19927;-53
2023/03/05 12:42:27;;;;;;;;;;;20.80;76.10;;;;;;5094861;28;19908;-53
2023/03/05 12:45:11;;;;;;;;;;;20.70;76.40;;;;;;5094413;28;19919;-49
2023/03/05 12:47:37;;;;;;;;;;;20.50;76.70;;;;;;5094663;28;19912;-51
2023/03/05 12:50:03;;;;;;;;;;;20.40;77.00;;;;;;5094262;28;19916;-52
2023/03/05 12:52:30;;;;;;;;;;;20.30;77.40;;;;;;5094463;28;20285;-53
2023/03/05 12:54:58;;;;;;;;;;;20.20;77.50;;;;;;5094386;28;19991;-50
2023/03/05 12:57:28;;;;;;;;;;;20.10;77.60;;;;;;5076536;28;20259;-51
2023/03/05 12:59:58;;;;;;;;;;;20.20;77.90;;;;;;5094565;28;19916;-54
2023/03/05 13:02:24;;;;;;;;;;;20.30;77.80;;;;;;5080654;28;20429;-54
2023/03/05 13:04:52;;;;;;;;;;;20.40;77.50;;;;;;5073866;28;19912;-54
2023/03/05 13:07:18;;;;;;;;;;;20.60;77.10;;;;;;5074210;28;19919;-50
2023/03/05 13:09:56;;;;;;;;;;;20.80;76.60;;;;;;5074287;28;19908;-50
2023/03/05 13:12:23;;;;;;;;;;;20.90;76.30;;;;;;5073983;28;20039;-52
2023/03/05 13:14:57;;;;;;;;;;;21.00;75.70;;;;;;5074088;28;19909;-51
2023/03/05 13:17:40;;;;;;;;;;;21.10;75.70;;;;;;5073669;28;19915;-53
2023/03/05 13:20:23;;;;;;;;;;;21.10;75.80;;;;;;5056175;28;20065;-53
2023/03/05 13:23:01;;;;;;;;;;;20.90;75.80;;;;;;5074709;28;19915;-49
2023/03/05 13:25:26;;;;;;;;;;;20.90;76.10;;;;;;5055626;28;19953;-51
2023/03/05 13:27:52;;;;;;;;;;;20.70;76.20;;;;;;5073478;28;19919;-52
2023/03/05 13:30:22;;;;;;;;;;;20.60;76.30;;;;;;5056084;28;19950;-53
2023/03/05 13:32:49;;;;;;;;;;;20.50;76.80;;;;;;5056048;28;19908;-53
2023/03/05 13:35:15;;;;;;;;;;;20.50;76.60;;;;;;5073912;28;20395;-50
2023/03/05 13:37:42;;;;;;;;;;;20.50;76.40;;;;;;5073879;28;19982;-49
2023/03/05 13:40:18;;;;;;;;;;;20.70;76.80;;;;;;5073895;28;19924;-51
2023/03/05 13:42:43;;;;;;;;;;;20.80;76.60;;;;;;5074104;28;19915;-52
2023/03/05 13:45:29;;;;;;;;;;;20.90;76.30;;;;;;5069781;28;19999;-49
2023/03/05 13:47:54;;;;;;;;;;;20.90;76.20;;;;;;5061201;28;19931;-52
2023/03/05 13:50:27;;;;;;;;;;;20.90;74.80;;;;;;5076426;28;19912;-52
2023/03/05 13:52:53;;;;;;;;;;;20.90;75.70;;;;;;5058213;28;19917;-54
2023/03/05 13:55:18;;;;;;;;;;;21.00;75.90;;;;;;5074291;28;20347;-52
2023/03/05 13:57:45;;;;;;;;;;;20.90;75.90;;;;;;5075284;28;20003;-55
2023/03/05 14:00:29;;;;;;;;;;;20.90;76.10;;;;;;5076440;28;20121;-50
2023/03/05 14:02:56;;;;;;;;;;;20.90;76.10;;;;;;5056122;28;19912;-55
2023/03/05 14:05:21;;;;;;;;;;;20.80;76.20;;;;;;5077452;28;19920;-55
2023/03/05 14:07:48;;;;;;;;;;;20.70;76.30;;;;;;5073122;28;19916;-52
2023/03/05 14:10:26;;;;;;;;;;;20.70;76.50;;;;;;5077449;28;19919;-52
2023/03/05 14:12:51;;;;;;;;;;;20.60;76.40;;;;;;5074727;28;19931;-54
2023/03/05 14:15:24;;;;;;;;;;;20.60;76.30;;;;;;5076326;28;20271;-50
2023/03/05 14:17:50;;;;;;;;;;;20.50;76.30;;;;;;5074680;28;19947;-52
2023/03/05 14:20:26;;;;;;;;;;;20.60;76.60;;;;;;5057017;28;19963;-54